Time;durP1;ratioP1;P1;durP2;ratioP2;P2;SDS_P1;SDS_P2;PMS_P1;PMS_P2;Temp;Humidity;BMP_temperature;BMP_pressure;BME280_temperature;BME280_humidity;BME280_pressure;Samples;Min_cycle;Max_cycle;Signal;HPM_P1;HPM_P2
2023/04/19 00:00:20;;;;;;;14.13;7.60;;;12.00;75.50;;;;;;5073871;28;20028;-74
2023/04/19 00:02:47;;;;;;;11.77;7.22;;;12.00;75.50;;;;;;5075049;28;20381;-74
2023/04/19 00:05:14;;;;;;;11.77;7.37;;;12.00;75.80;;;;;;5075054;28;20032;-74
2023/04/19 00:07:40;;;;;;;12.23;7.20;;;12.00;75.80;;;;;;5074858;28;20384;-73
2023/04/19 00:10:06;;;;;;;12.32;7.72;;;12.00;75.90;;;;;;5074905;28;20048;-73
2023/04/19 00:12:32;;;;;;;12.63;7.63;;;12.00;76.00;;;;;;5074906;28;20032;-74
2023/04/19 00:14:57;;;;;;;13.27;7.07;;;12.00;76.20;;;;;;5074731;28;20024;-74
2023/04/19 00:17:23;;;;;;;12.23;6.88;;;12.00;76.30;;;;;;5073626;28;20048;-74
2023/04/19 00:19:49;;;;;;;11.40;7.30;;;12.00;76.60;;;;;;5074727;28;20080;-74
2023/04/19 00:22:16;;;;;;;11.38;7.25;;;12.00;76.30;;;;;;5073212;28;20380;-74
2023/04/19 00:24:41;;;;;;;14.00;7.72;;;12.00;76.50;;;;;;5074308;28;20099;-74
2023/04/19 00:27:07;;;;;;;15.00;7.55;;;11.90;76.80;;;;;;5074442;28;20032;-74
2023/04/19 00:29:33;;;;;;;14.88;8.15;;;11.90;76.80;;;;;;5074551;28;20028;-74
2023/04/19 00:31:59;;;;;;;11.27;7.53;;;11.90;77.00;;;;;;5074205;28;20048;-74
2023/04/19 00:34:24;;;;;;;11.50;7.40;;;11.90;76.90;;;;;;5074498;28;20039;-74
2023/04/19 00:36:50;;;;;;;12.60;7.83;;;11.90;76.80;;;;;;5074537;28;20031;-74
2023/04/19 00:39:16;;;;;;;12.55;7.75;;;11.80;76.90;;;;;;5074472;28;20036;-74
2023/04/19 00:41:41;;;;;;;12.57;7.78;;;11.80;77.10;;;;;;5074399;28;20032;-74
2023/04/19 00:44:07;;;;;;;11.43;7.33;;;11.80;77.20;;;;;;5074343;28;20457;-74
2023/04/19 00:46:32;;;;;;;13.00;8.40;;;11.80;77.30;;;;;;5074293;28;20032;-74
2023/04/19 00:48:58;;;;;;;10.95;7.30;;;11.70;77.30;;;;;;5074129;28;20052;-74
2023/04/19 00:51:26;;;;;;;12.40;6.73;;;11.70;77.30;;;;;;5074256;28;20021;-74
2023/04/19 00:53:51;;;;;;;11.03;7.17;;;11.70;77.60;;;;;;5073907;28;20028;-74
2023/04/19 00:56:20;;;;;;;13.15;7.68;;;11.70;77.50;;;;;;5074123;28;20036;-74
2023/04/19 00:58:46;;;;;;;14.53;7.93;;;11.60;77.70;;;;;;5074026;28;20127;-74
2023/04/19 01:01:12;;;;;;;16.70;7.53;;;11.60;77.60;;;;;;5074229;28;20024;-74
2023/04/19 01:03:38;;;;;;;13.33;8.03;;;11.50;77.90;;;;;;5074061;28;20055;-74
2023/04/19 01:06:04;;;;;;;13.35;7.88;;;11.50;78.10;;;;;;5073716;28;20093;-74
2023/04/19 01:08:29;;;;;;;15.30;8.03;;;11.50;78.40;;;;;;5073702;28;20028;-74
2023/04/19 01:10:55;;;;;;;11.67;7.67;;;11.50;78.70;;;;;;5073491;28;20048;-74
2023/04/19 01:13:21;;;;;;;14.57;8.57;;;11.50;78.50;;;;;;5073515;28;20016;-74
2023/04/19 01:15:46;;;;;;;13.07;8.20;;;11.40;78.40;;;;;;5073488;28;20020;-74
2023/04/19 01:18:12;;;;;;;14.93;8.80;;;11.40;78.50;;;;;;5073695;28;20032;-73
2023/04/19 01:20:38;;;;;;;13.87;7.53;;;11.40;78.70;;;;;;5073720;28;20027;-74
2023/04/19 01:23:04;;;;;;;12.93;8.37;;;11.40;78.90;;;;;;5073518;28;20028;-74
2023/04/19 01:25:30;;;;;;;13.57;8.63;;;11.30;79.30;;;;;;5073341;28;20029;-75
2023/04/19 01:27:55;;;;;;;15.30;8.67;;;11.30;79.30;;;;;;5073556;28;20457;-74
2023/04/19 01:30:21;;;;;;;13.63;8.53;;;11.30;79.20;;;;;;5073594;28;20029;-75
2023/04/19 01:32:46;;;;;;;13.57;8.17;;;11.30;79.30;;;;;;5073533;28;20024;-74
2023/04/19 01:35:12;;;;;;;11.87;7.63;;;11.20;79.30;;;;;;5073674;28;20441;-74
2023/04/19 01:37:38;;;;;;;12.47;7.60;;;11.20;79.60;;;;;;5072385;28;20108;-74
2023/04/19 01:40:04;;;;;;;11.03;8.10;;;11.30;79.60;;;;;;5073551;28;20127;-74
2023/04/19 01:42:30;;;;;;;14.37;7.93;;;11.20;80.30;;;;;;5073395;28;20091;-74
2023/04/19 01:44:56;;;;;;;13.77;8.97;;;11.20;80.00;;;;;;5073121;28;20063;-75
2023/04/19 01:47:22;;;;;;;12.93;8.77;;;11.20;80.30;;;;;;5073163;28;20493;-74
2023/04/19 01:49:47;;;;;;;13.27;8.00;;;11.20;80.30;;;;;;5073110;28;20031;-74
2023/04/19 01:52:13;;;;;;;12.60;7.80;;;11.20;80.40;;;;;;5071713;28;20024;-74
2023/04/19 01:54:38;;;;;;;14.63;8.33;;;11.20;80.50;;;;;;5073327;28;20538;-75
2023/04/19 01:57:04;;;;;;;13.33;8.53;;;11.10;80.30;;;;;;5072917;28;20096;-73
2023/04/19 01:59:30;;;;;;;11.77;7.67;;;11.10;80.50;;;;;;5073115;28;20035;-74
2023/04/19 02:01:55;;;;;;;12.73;7.97;;;11.10;80.40;;;;;;5073292;28;20036;-74
2023/04/19 02:04:21;;;;;;;13.77;7.93;;;11.00;80.70;;;;;;5072987;28;20016;-74
2023/04/19 02:06:47;;;;;;;12.80;7.73;;;11.00;80.80;;;;;;5071417;28;20427;-74
2023/04/19 02:09:12;;;;;;;13.07;8.47;;;10.90;80.90;;;;;;5072647;28;20075;-75
2023/04/19 02:11:38;;;;;;;14.80;8.00;;;10.90;81.10;;;;;;5072767;28;20059;-75
2023/04/19 02:14:04;;;;;;;13.87;8.00;;;10.80;81.10;;;;;;5073049;28;20028;-75
2023/04/19 02:16:29;;;;;;;12.50;7.50;;;10.80;81.10;;;;;;5073010;28;20504;-75
2023/04/19 02:18:55;;;;;;;11.33;7.20;;;10.80;81.10;;;;;;5073094;28;20084;-74
2023/04/19 02:21:21;;;;;;;13.33;7.57;;;10.90;81.20;;;;;;5072898;28;20504;-74
2023/04/19 02:23:46;;;;;;;13.83;8.33;;;10.80;81.20;;;;;;5072807;28;20033;-74
2023/04/19 02:26:12;;;;;;;12.63;8.17;;;10.80;81.70;;;;;;5073017;28;20531;-74
2023/04/19 02:28:38;;;;;;;14.33;8.10;;;10.70;81.50;;;;;;5071569;28;20028;-74
2023/04/19 02:31:05;;;;;;;11.87;7.63;;;10.70;81.60;;;;;;5072960;28;20040;-74
2023/04/19 02:33:30;;;;;;;12.20;6.43;;;10.70;81.50;;;;;;5072970;28;20025;-74
2023/04/19 02:35:56;;;;;;;14.80;7.87;;;10.60;81.60;;;;;;5073301;28;20494;-74
2023/04/19 02:38:22;;;;;;;11.97;7.27;;;10.60;81.70;;;;;;5073243;28;20464;-75
2023/04/19 02:40:48;;;;;;;11.37;7.63;;;10.60;81.80;;;;;;5071749;28;20032;-74
2023/04/19 02:43:13;;;;;;;11.13;6.87;;;10.60;82.10;;;;;;5072797;28;20036;-74
2023/04/19 02:45:39;;;;;;;12.40;7.23;;;10.60;82.00;;;;;;5071424;28;20384;-74
2023/04/19 02:48:05;;;;;;;11.23;6.83;;;10.60;82.20;;;;;;5074043;28;20451;-74
2023/04/19 02:50:31;;;;;;;11.17;7.37;;;10.60;82.40;;;;;;5074958;28;20055;-74
2023/04/19 02:52:57;;;;;;;12.23;7.67;;;10.60;82.60;;;;;;5074594;28;20469;-74
2023/04/19 02:55:23;;;;;;;11.40;7.10;;;10.70;82.60;;;;;;5076194;28;20074;-74
2023/04/19 02:57:48;;;;;;;13.37;7.77;;;10.70;82.80;;;;;;5076049;28;20032;-74
2023/04/19 03:00:15;;;;;;;9.77;6.50;;;10.70;82.90;;;;;;5076388;28;20469;-74
2023/04/19 03:02:42;;;;;;;12.00;7.67;;;10.70;82.90;;;;;;5058496;28;20097;-74
2023/04/19 03:05:09;;;;;;;11.60;6.70;;;10.70;82.80;;;;;;5076076;28;20488;-74
2023/04/19 03:07:35;;;;;;;11.73;6.57;;;10.80;82.90;;;;;;5076206;28;20099;-83
2023/04/19 03:10:00;;;;;;;10.87;7.37;;;10.80;83.10;;;;;;5076135;28;20462;-84
2023/04/19 03:12:26;;;;;;;10.77;6.80;;;10.80;83.20;;;;;;5076599;28;20064;-84
2023/04/19 03:14:52;;;;;;;11.77;6.43;;;10.80;83.00;;;;;;5076317;28;20350;-85
2023/04/19 03:17:17;;;;;;;11.93;6.53;;;10.80;83.10;;;;;;5075918;28;20033;-85
2023/04/19 03:19:43;;;;;;;10.43;6.87;;;10.90;83.00;;;;;;5076074;28;20032;-83
2023/04/19 03:22:09;;;;;;;14.50;6.80;;;10.90;83.00;;;;;;5076537;28;20451;-84
2023/04/19 03:24:34;;;;;;;10.83;6.80;;;10.90;83.00;;;;;;5075815;28;20107;-74
2023/04/19 03:27:01;;;;;;;10.10;6.20;;;10.90;83.10;;;;;;5075440;28;20028;-74
2023/04/19 03:29:27;;;;;;;9.13;5.87;;;11.00;83.20;;;;;;5075726;28;20028;-74
2023/04/19 03:31:52;;;;;;;9.93;6.00;;;11.00;83.00;;;;;;5075979;28;20495;-74
2023/04/19 03:34:18;;;;;;;11.47;5.50;;;11.00;83.20;;;;;;5075788;28;20033;-74
2023/04/19 03:36:43;;;;;;;10.43;6.30;;;11.00;82.90;;;;;;5075580;28;20028;-73
2023/04/19 03:39:09;;;;;;;11.50;6.73;;;11.10;82.80;;;;;;5075361;28;20103;-74
2023/04/19 03:41:35;;;;;;;10.00;6.00;;;11.00;82.60;;;;;;5075514;28;20060;-73
2023/04/19 03:44:01;;;;;;;12.03;6.10;;;11.00;82.50;;;;;;5075355;28;20040;-74
2023/04/19 03:46:30;;;;;;;10.70;6.17;;;11.10;82.50;;;;;;5073593;28;20028;-74
2023/04/19 03:48:56;;;;;;;14.20;6.47;;;11.00;82.30;;;;;;5055246;28;20035;-73
2023/04/19 03:51:21;;;;;;;10.47;5.83;;;11.10;82.30;;;;;;5054400;28;20099;-74
2023/04/19 03:53:47;;;;;;;9.90;5.90;;;11.10;82.20;;;;;;5054424;28;20029;-74
2023/04/19 03:56:13;;;;;;;10.60;6.00;;;11.10;82.20;;;;;;5054894;28;20025;-74
2023/04/19 03:58:38;;;;;;;9.33;5.77;;;11.10;82.20;;;;;;5054984;28;20490;-74
2023/04/19 04:01:07;;;;;;;10.60;5.67;;;11.10;82.10;;;;;;5053842;28;20070;-74
2023/04/19 04:03:32;;;;;;;10.50;5.83;;;11.10;81.80;;;;;;5055286;28;20025;-74
2023/04/19 04:05:58;;;;;;;11.23;5.60;;;11.10;81.70;;;;;;5055145;28;20056;-74
2023/04/19 04:08:24;;;;;;;11.17;5.33;;;11.00;81.60;;;;;;5055041;28;20116;-74
2023/04/19 04:10:50;;;;;;;9.47;5.07;;;11.00;81.50;;;;;;5070027;28;20037;-74
2023/04/19 04:13:15;;;;;;;10.10;5.67;;;11.00;81.40;;;;;;5055084;28;20418;-74
2023/04/19 04:15:41;;;;;;;10.77;5.17;;;11.00;81.20;;;;;;5054734;28;20100;-74
2023/04/19 04:18:07;;;;;;;8.57;4.83;;;11.00;81.10;;;;;;5054812;28;20032;-74
2023/04/19 04:20:32;;;;;;;9.87;5.87;;;10.90;80.90;;;;;;5054697;28;20570;-74
2023/04/19 04:22:58;;;;;;;8.87;5.73;;;10.80;80.90;;;;;;5054740;28;20029;-74
2023/04/19 04:25:24;;;;;;;9.63;5.47;;;10.80;80.80;;;;;;5054717;28;20071;-74
2023/04/19 04:27:51;;;;;;;9.00;5.37;;;10.70;80.60;;;;;;5054323;28;20033;-75
2023/04/19 04:30:17;;;;;;;10.67;5.13;;;10.70;80.70;;;;;;5054371;28;20432;-75
2023/04/19 04:32:43;;;;;;;11.80;5.80;;;10.60;80.70;;;;;;5054340;28;20090;-75
2023/04/19 04:35:10;;;;;;;9.37;5.73;;;10.60;80.80;;;;;;5054277;28;20056;-76
2023/04/19 04:37:36;;;;;;;10.17;5.63;;;10.50;80.90;;;;;;5081577;28;20041;-76
2023/04/19 04:40:05;;;;;;;10.23;5.83;;;10.50;80.80;;;;;;5064193;28;20025;-76
2023/04/19 04:42:32;;;;;;;11.77;5.83;;;10.40;80.90;;;;;;5071366;28;20040;-76
2023/04/19 04:45:00;;;;;;;12.30;5.47;;;10.40;81.00;;;;;;5074176;28;20036;-76
2023/04/19 04:47:32;;;;;;;11.77;5.70;;;10.30;80.80;;;;;;5073848;28;20143;-75
2023/04/19 04:49:59;;;;;;;10.30;5.03;;;10.30;80.80;;;;;;5073378;28;20067;-75
2023/04/19 04:52:24;;;;;;;10.10;5.50;;;10.30;80.80;;;;;;5072454;28;20029;-75
2023/04/19 04:54:50;;;;;;;9.87;5.50;;;10.20;80.90;;;;;;5074021;28;20385;-75
2023/04/19 04:57:15;;;;;;;8.00;4.23;;;10.20;80.90;;;;;;5072589;28;20279;-75
2023/04/19 04:59:41;;;;;;;10.63;5.03;;;10.20;80.80;;;;;;5073920;28;20029;-75
2023/04/19 05:02:07;;;;;;;10.47;5.70;;;10.20;80.70;;;;;;5073920;28;20043;-76
2023/04/19 05:04:32;;;;;;;9.07;5.30;;;10.20;80.70;;;;;;5073927;28;20036;-76
2023/04/19 05:06:58;;;;;;;10.00;5.13;;;10.20;80.50;;;;;;5073834;28;20411;-76
2023/04/19 05:09:24;;;;;;;13.33;5.10;;;10.20;80.50;;;;;;5073675;28;20045;-76
2023/04/19 05:11:49;;;;;;;11.07;4.87;;;10.10;80.50;;;;;;5072605;28;20059;-76
2023/04/19 05:14:15;;;;;;;10.33;5.60;;;10.10;80.50;;;;;;5073711;28;20107;-75
2023/04/19 05:16:41;;;;;;;8.73;5.27;;;10.10;80.60;;;;;;5073781;28;20063;-76
2023/04/19 05:19:06;;;;;;;8.33;4.50;;;10.10;80.60;;;;;;5073626;28;20522;-75
2023/04/19 05:21:33;;;;;;;10.57;5.50;;;10.10;80.60;;;;;;5072154;28;20044;-75
2023/04/19 05:23:59;;;;;;;7.67;4.27;;;10.20;80.70;;;;;;5073441;28;20040;-75
2023/04/19 05:26:24;;;;;;;12.77;5.20;;;10.10;80.60;;;;;;5073509;28;20040;-75
2023/04/19 05:28:50;;;;;;;10.30;5.60;;;10.00;80.60;;;;;;5072540;28;20457;-75
2023/04/19 05:31:16;;;;;;;10.67;4.63;;;10.00;80.60;;;;;;5073028;28;20465;-75
2023/04/19 05:33:41;;;;;;;9.53;5.27;;;10.10;80.60;;;;;;5071997;28;20106;-75
2023/04/19 05:36:07;;;;;;;12.20;5.47;;;10.00;80.50;;;;;;5073291;28;20037;-75
2023/04/19 05:38:33;;;;;;;13.37;5.70;;;10.10;80.50;;;;;;5073915;28;20469;-75
2023/04/19 05:40:59;;;;;;;9.90;4.80;;;10.00;79.90;;;;;;5073592;28;20063;-75
2023/04/19 05:43:24;;;;;;;8.23;4.37;;;10.00;80.00;;;;;;5072876;28;20032;-75
2023/04/19 05:45:50;;;;;;;8.70;5.17;;;10.00;79.90;;;;;;5073367;28;20035;-74
2023/04/19 05:48:16;;;;;;;11.90;5.73;;;9.90;79.70;;;;;;5073050;28;20108;-74
2023/04/19 05:50:41;;;;;;;7.70;4.80;;;9.90;79.30;;;;;;5072739;28;20032;-74
2023/04/19 05:53:07;;;;;;;8.43;4.70;;;10.00;79.30;;;;;;5072531;28;20480;-74
2023/04/19 05:55:32;;;;;;;9.70;5.10;;;10.00;79.00;;;;;;5072598;28;20067;-76
2023/04/19 05:57:58;;;;;;;12.10;5.13;;;10.00;79.00;;;;;;5072568;28;20126;-76
2023/04/19 06:00:24;;;;;;;10.10;5.53;;;10.00;78.90;;;;;;5072567;28;20032;-76
2023/04/19 06:02:49;;;;;;;9.37;4.63;;;10.00;78.70;;;;;;5071383;28;20044;-76
2023/04/19 06:05:15;;;;;;;10.83;4.90;;;10.00;78.60;;;;;;5072697;28;20097;-74
2023/04/19 06:07:41;;;;;;;9.47;5.10;;;9.90;78.20;;;;;;5072417;28;20033;-76
2023/04/19 06:10:07;;;;;;;9.80;5.50;;;9.90;78.00;;;;;;5072406;28;20052;-76
2023/04/19 06:12:33;;;;;;;11.20;5.63;;;9.90;77.50;;;;;;5071444;28;20082;-76
2023/04/19 06:14:58;;;;;;;10.33;5.17;;;10.00;77.50;;;;;;5072835;28;20025;-76
2023/04/19 06:17:24;;;;;;;10.97;5.53;;;9.90;77.10;;;;;;5072507;28;20142;-76
2023/04/19 06:19:51;;;;;;;11.07;5.03;;;9.90;76.60;;;;;;5072902;28;20032;-76
2023/04/19 06:22:16;;;;;;;9.73;5.17;;;9.90;76.30;;;;;;5068816;28;20044;-76
2023/04/19 06:24:44;;;;;;;9.57;4.40;;;9.90;76.00;;;;;;5065969;28;20036;-76
2023/04/19 06:27:10;;;;;;;9.20;4.23;;;10.00;76.00;;;;;;5074842;28;20024;-76
2023/04/19 06:29:36;;;;;;;11.17;4.97;;;10.00;75.00;;;;;;5076014;28;20036;-75
2023/04/19 06:32:02;;;;;;;9.97;5.07;;;9.90;74.50;;;;;;5074768;28;20090;-73
2023/04/19 06:34:28;;;;;;;8.13;4.50;;;10.00;74.30;;;;;;5074883;28;20029;-75
2023/04/19 06:36:54;;;;;;;8.63;3.87;;;10.00;74.20;;;;;;5070426;28;20038;-76
2023/04/19 06:39:19;;;;;;;8.73;4.37;;;10.00;73.90;;;;;;5071783;28;20029;-76
2023/04/19 06:41:45;;;;;;;7.97;4.30;;;10.00;73.50;;;;;;5075958;28;20070;-76
2023/04/19 06:44:12;;;;;;;8.17;3.73;;;10.10;73.60;;;;;;5074721;28;20032;-76
2023/04/19 06:46:37;;;;;;;8.07;4.20;;;10.10;72.90;;;;;;5075967;28;20470;-76
2023/04/19 06:49:03;;;;;;;8.57;4.30;;;10.20;72.30;;;;;;5066208;28;20040;-76
2023/04/19 06:51:29;;;;;;;6.57;3.73;;;10.30;73.00;;;;;;5071388;28;20040;-75
2023/04/19 06:53:55;;;;;;;8.53;4.03;;;10.30;71.90;;;;;;5067045;28;20025;-76
2023/04/19 06:56:46;;;;;;;10.00;3.50;;;10.50;71.50;;;;;;5075329;28;20029;-76
2023/04/19 06:59:15;;;;;;;8.07;4.07;;;10.40;71.40;;;;;;5075913;28;20052;-75
2023/04/19 07:01:41;;;;;;;6.37;3.47;;;10.50;69.90;;;;;;5074700;28;20396;-76
2023/04/19 07:04:07;;;;;;;6.83;3.33;;;10.50;67.90;;;;;;5076273;28;20040;-75
2023/04/19 07:06:36;;;;;;;7.83;3.90;;;10.60;67.70;;;;;;5073241;28;20048;-76
2023/04/19 07:09:03;;;;;;;4.67;2.90;;;10.50;67.90;;;;;;5075788;28;20020;-76
2023/04/19 07:11:29;;;;;;;9.13;3.47;;;10.50;68.00;;;;;;5075618;28;20032;-76
2023/04/19 07:13:55;;;;;;;7.17;2.93;;;10.60;67.60;;;;;;5074508;28;20032;-76
2023/04/19 07:16:21;;;;;;;6.83;2.60;;;10.60;67.60;;;;;;5075524;28;20032;-75
2023/04/19 07:18:46;;;;;;;8.17;2.87;;;10.60;66.90;;;;;;5075665;28;20039;-77
2023/04/19 07:21:12;;;;;;;8.13;2.93;;;10.60;66.00;;;;;;5075710;28;20036;-77
2023/04/19 07:23:38;;;;;;;6.07;2.60;;;10.70;65.40;;;;;;5075318;28;20377;-77
2023/04/19 07:26:04;;;;;;;6.40;2.60;;;10.70;64.60;;;;;;5074202;28;20056;-75
2023/04/19 07:28:30;;;;;;;5.23;2.27;;;10.70;63.40;;;;;;5075628;28;20054;-77
2023/04/19 07:30:56;;;;;;;5.03;2.23;;;10.70;64.10;;;;;;5074248;28;20473;-76
2023/04/19 07:33:23;;;;;;;6.50;2.60;;;10.70;63.70;;;;;;5075474;28;20112;-76
2023/04/19 07:35:49;;;;;;;10.97;2.63;;;10.70;62.20;;;;;;5074110;28;20036;-76
2023/04/19 07:38:15;;;;;;;6.57;2.40;;;10.80;62.60;;;;;;5075114;28;20345;-76
2023/04/19 07:40:40;;;;;;;5.43;2.40;;;10.80;63.10;;;;;;5074941;28;20032;-76
2023/04/19 07:43:06;;;;;;;4.33;2.33;;;10.80;62.90;;;;;;5074457;28;20068;-76
2023/04/19 07:45:32;;;;;;;6.33;2.10;;;10.80;63.20;;;;;;5075291;28;20111;-76
2023/04/19 07:47:57;;;;;;;4.83;2.03;;;10.90;62.80;;;;;;5075515;28;20369;-76
2023/04/19 07:50:25;;;;;;;5.73;1.53;;;10.90;63.10;;;;;;5075624;28;20106;-77
2023/04/19 07:52:51;;;;;;;6.17;2.20;;;10.90;63.10;;;;;;5066985;28;20029;-76
2023/04/19 07:55:16;;;;;;;7.23;2.00;;;10.90;63.20;;;;;;5074723;28;20032;-76
2023/04/19 07:57:46;;;;;;;3.80;1.60;;;10.90;63.30;;;;;;5073287;28;20036;-76
2023/04/19 08:00:14;;;;;;;3.40;1.83;;;11.00;63.30;;;;;;5074872;28;20081;-76
2023/04/19 08:02:45;;;;;;;4.03;1.83;;;11.00;62.90;;;;;;5073221;28;20075;-76
2023/04/19 08:05:12;;;;;;;4.93;1.63;;;11.10;62.70;;;;;;5074569;28;20032;-76
2023/04/19 08:07:38;;;;;;;4.17;1.77;;;11.10;62.20;;;;;;5070909;28;20461;-76
2023/04/19 08:10:06;;;;;;;5.05;1.63;;;11.10;61.90;;;;;;5074358;28;20144;-76
2023/04/19 08:12:32;;;;;;;3.83;1.53;;;11.20;62.10;;;;;;5074492;28;20104;-76
2023/04/19 08:14:57;;;;;;;2.75;1.20;;;11.20;61.90;;;;;;5074886;28;20063;-76
2023/04/19 08:17:23;;;;;;;5.70;1.60;;;11.20;61.10;;;;;;5074789;28;20064;-76
2023/04/19 08:19:49;;;;;;;4.97;1.67;;;11.30;61.40;;;;;;5074334;28;20040;-83
2023/04/19 08:22:16;;;;;;;4.73;1.67;;;11.30;61.00;;;;;;5073218;28;20082;-82
2023/04/19 08:24:43;;;;;;;4.07;1.70;;;11.30;60.80;;;;;;5074591;28;20107;-83
2023/04/19 08:27:09;;;;;;;11.77;1.70;;;11.40;61.30;;;;;;5074594;28;20449;-76
2023/04/19 08:29:37;;;;;;;7.20;1.95;;;11.30;61.00;;;;;;5073115;28;20048;-76
2023/04/19 08:32:04;;;;;;;3.93;1.53;;;11.50;59.60;;;;;;5074576;28;20033;-76
2023/04/19 08:34:30;;;;;;;7.13;1.33;;;11.50;59.60;;;;;;5074677;28;20032;-77
2023/04/19 08:36:56;;;;;;;3.30;1.35;;;11.50;59.80;;;;;;5074369;28;20043;-76
2023/04/19 08:39:22;;;;;;;3.45;1.02;;;11.60;59.70;;;;;;5074212;28;20028;-76
2023/04/19 08:41:48;;;;;;;6.55;1.30;;;11.60;59.50;;;;;;5073100;28;20031;-76
2023/04/19 08:44:16;;;;;;;5.50;1.10;;;11.60;59.10;;;;;;5074420;28;20031;-76
2023/04/19 08:46:42;;;;;;;6.72;1.45;;;11.70;58.70;;;;;;5073729;28;20025;-76
2023/04/19 08:49:09;;;;;;;4.40;1.35;;;11.70;58.00;;;;;;5074142;28;20032;-74
2023/04/19 08:51:36;;;;;;;3.45;1.10;;;11.70;58.40;;;;;;5073240;28;20078;-75
2023/04/19 08:54:04;;;;;;;4.72;0.93;;;11.70;58.50;;;;;;5072764;28;20067;-75
2023/04/19 08:56:30;;;;;;;4.47;0.98;;;11.80;57.60;;;;;;5073694;28;20142;-79
2023/04/19 08:58:56;;;;;;;2.22;0.90;;;11.80;57.90;;;;;;5073829;28;20063;-79
2023/04/19 09:01:21;;;;;;;4.35;1.13;;;11.80;56.90;;;;;;5072723;28;20036;-83
2023/04/19 09:03:47;;;;;;;3.00;0.90;;;11.90;57.20;;;;;;5072479;28;20032;-78
2023/04/19 09:06:13;;;;;;;7.38;1.15;;;11.90;57.10;;;;;;5072488;28;20032;-78
2023/04/19 09:08:40;;;;;;;2.97;0.80;;;11.90;56.00;;;;;;5073690;28;20119;-81
2023/04/19 09:11:06;;;;;;;2.75;0.70;;;11.90;55.60;;;;;;5069771;28;20036;-79
2023/04/19 09:13:32;;;;;;;3.97;0.90;;;12.00;55.50;;;;;;5072968;28;20388;-81
2023/04/19 09:16:01;;;;;;;2.90;0.95;;;12.00;55.60;;;;;;5072134;28;20032;-82
2023/04/19 09:18:26;;;;;;;2.20;0.80;;;12.10;55.90;;;;;;5072142;28;20120;-80
2023/04/19 09:20:56;;;;;;;3.78;0.75;;;12.10;56.00;;;;;;5072798;28;20108;-82
2023/04/19 09:23:26;;;;;;;3.90;1.13;;;12.10;55.80;;;;;;5073118;28;20033;-78
2023/04/19 09:25:52;;;;;;;6.45;1.13;;;12.20;55.50;;;;;;5071806;28;20111;-80
2023/04/19 09:28:17;;;;;;;4.45;0.68;;;12.30;55.50;;;;;;5071516;28;20112;-81
2023/04/19 09:30:43;;;;;;;1.92;0.85;;;12.30;55.30;;;;;;5072728;28;20043;-80
2023/04/19 09:33:08;;;;;;;4.30;0.93;;;12.40;55.10;;;;;;5071518;28;20029;-79
2023/04/19 09:35:47;;;;;;;2.95;0.90;;;12.40;54.40;;;;;;5072922;28;20031;-79
2023/04/19 09:38:13;;;;;;;3.03;0.95;;;12.40;54.90;;;;;;5071970;28;20487;-79
2023/04/19 09:40:39;;;;;;;2.53;0.73;;;12.50;54.70;;;;;;5070707;28;20528;-80
2023/04/19 09:43:05;;;;;;;2.72;0.80;;;12.60;54.60;;;;;;5071449;28;20040;-81
2023/04/19 09:45:45;;;;;;;3.42;1.00;;;12.60;54.80;;;;;;5072965;28;20414;-80
2023/04/19 09:48:12;;;;;;;1.70;0.73;;;12.60;55.10;;;;;;5072863;28;20024;-81
2023/04/19 09:50:58;;;;;;;1.52;0.80;;;12.70;54.80;;;;;;5073072;28;20457;-80
2023/04/19 09:53:24;;;;;;;3.78;1.05;;;12.80;54.90;;;;;;5073329;28;20032;-79
2023/04/19 09:55:51;;;;;;;2.92;0.80;;;12.80;54.70;;;;;;5072752;28;20029;-80
2023/04/19 09:58:19;;;;;;;1.70;0.63;;;12.80;54.80;;;;;;5074155;28;20095;-81
2023/04/19 10:00:46;;;;;;;1.65;0.80;;;12.90;55.00;;;;;;5076054;28;20024;-79
2023/04/19 10:03:14;;;;;;;5.43;0.80;;;13.00;55.00;;;;;;5075885;28;20039;-82
2023/04/19 10:05:41;;;;;;;3.65;0.85;;;13.00;54.80;;;;;;5076368;28;20043;-81
2023/04/19 10:08:08;;;;;;;1.95;0.77;;;13.10;54.90;;;;;;5075331;28;20162;-80
2023/04/19 10:10:35;;;;;;;2.35;0.80;;;13.30;55.00;;;;;;5075870;28;20132;-81
2023/04/19 10:13:06;;;;;;;3.85;0.90;;;13.40;54.40;;;;;;5075472;28;20024;-81
2023/04/19 10:15:35;;;;;;;2.38;0.70;;;13.50;54.20;;;;;;5075748;28;20037;-82
2023/04/19 10:18:05;;;;;;;2.55;0.73;;;13.70;53.90;;;;;;5073808;28;20063;-82
2023/04/19 10:20:49;;;;;;;2.00;0.70;;;14.00;53.80;;;;;;5075283;28;20052;-82
2023/04/19 10:23:15;;;;;;;4.45;0.80;;;14.40;53.40;;;;;;5077181;28;20064;-81
2023/04/19 10:25:45;;;;;;;1.73;0.80;;;14.80;53.20;;;;;;5076866;28;20447;-82
2023/04/19 10:28:11;;;;;;;2.38;0.70;;;15.20;53.00;;;;;;5076685;28;20021;-80
2023/04/19 10:30:56;;;;;;;1.35;0.50;;;15.70;52.50;;;;;;5075879;28;20025;-82
2023/04/19 10:33:30;;;;;;;6.03;1.10;;;16.20;52.30;;;;;;5079394;28;20017;-81
2023/04/19 10:36:00;;;;;;;5.82;0.90;;;16.90;52.10;;;;;;5076518;28;20489;-80
2023/04/19 10:38:39;;;;;;;1.55;0.60;;;17.60;51.10;;;;;;5075083;28;20472;-81
2023/04/19 10:41:10;;;;;;;2.40;0.65;;;18.40;51.00;;;;;;5076210;28;20024;-82
2023/04/19 10:43:37;;;;;;;1.30;0.60;;;19.10;49.50;;;;;;5076138;28;20071;-80
2023/04/19 10:46:21;;;;;;;1.92;0.85;;;19.80;49.40;;;;;;5076093;28;20024;-83
2023/04/19 10:48:58;;;;;;;3.45;0.80;;;20.50;48.30;;;;;;5076153;28;20043;-82
2023/04/19 10:51:37;;;;;;;2.67;0.63;;;21.10;47.50;;;;;;5076649;28;20362;-82
2023/04/19 10:54:08;;;;;;;2.78;0.80;;;21.70;46.40;;;;;;5076033;28;20087;-85
2023/04/19 10:56:33;;;;;;;3.75;0.70;;;22.20;46.00;;;;;;5075040;28;20370;-83
2023/04/19 10:59:09;;;;;;;2.50;1.00;;;22.80;44.80;;;;;;5076038;28;20036;-83
2023/04/19 11:01:38;;;;;;;3.55;1.00;;;23.20;43.70;;;;;;5075992;28;20021;-83
2023/04/19 11:04:04;;;;;;;2.00;0.65;;;23.70;42.00;;;;;;5075830;28;20052;-84
2023/04/19 11:06:31;;;;;;;3.05;0.95;;;24.10;41.00;;;;;;5075925;28;20031;-80
2023/04/19 11:08:57;;;;;;;1.15;0.60;;;24.40;40.00;;;;;;5075304;28;20314;-82
2023/04/19 11:11:25;;;;;;;4.13;0.90;;;24.60;39.70;;;;;;5057760;28;20029;-84
2023/04/19 11:13:55;;;;;;;1.92;0.80;;;24.90;38.70;;;;;;5074797;28;20121;-81
2023/04/19 11:16:20;;;;;;;2.38;0.70;;;25.00;37.60;;;;;;5076111;28;20074;-81
2023/04/19 11:18:46;;;;;;;1.88;0.70;;;25.20;36.90;;;;;;5074649;28;20485;-85
2023/04/19 11:21:13;;;;;;;2.00;0.77;;;25.50;36.60;;;;;;5074781;28;20127;-82
2023/04/19 11:23:39;;;;;;;1.85;0.85;;;25.80;36.40;;;;;;5077102;28;20502;-86
2023/04/19 11:26:09;;;;;;;1.77;0.80;;;26.20;36.00;;;;;;5074212;28;20033;-78
2023/04/19 11:28:35;;;;;;;2.70;0.98;;;26.50;34.80;;;;;;5075853;28;20023;-87
2023/04/19 11:31:02;;;;;;;3.10;0.95;;;26.80;34.30;;;;;;5078644;28;20016;-82
2023/04/19 11:33:32;;;;;;;2.75;0.98;;;27.00;32.80;;;;;;5077115;28;20017;-86
2023/04/19 11:35:58;;;;;;;2.53;0.80;;;27.20;32.50;;;;;;5076712;28;20025;-87
2023/04/19 11:38:29;;;;;;;2.50;0.90;;;27.40;32.10;;;;;;5076078;28;20099;-85
2023/04/19 11:41:02;;;;;;;2.90;0.90;;;27.50;31.30;;;;;;5075732;28;20020;-85
2023/04/19 11:43:32;;;;;;;2.25;0.70;;;27.70;30.30;;;;;;5075957;28;20052;-88
2023/04/19 11:46:05;;;;;;;1.98;0.70;;;27.90;30.30;;;;;;5075761;28;20388;-86
2023/04/19 11:48:30;;;;;;;6.77;0.80;;;28.00;30.00;;;;;;5065466;28;20372;-84
2023/04/19 11:50:58;;;;;;;2.33;0.75;;;28.20;29.80;;;;;;5055302;28;20342;-82
2023/04/19 11:53:26;;;;;;;2.40;0.90;;;28.10;29.80;;;;;;5057715;28;20025;-86
2023/04/19 11:56:03;;;;;;;1.92;0.70;;;28.20;30.40;;;;;;5055103;28;20053;-84
2023/04/19 11:58:34;;;;;;;3.65;0.90;;;28.40;30.20;;;;;;5058689;28;20056;-82
2023/04/19 12:01:11;;;;;;;3.45;0.90;;;28.80;30.00;;;;;;5057927;28;20028;-85
2023/04/19 12:03:43;;;;;;;2.38;0.77;;;28.90;29.70;;;;;;5055451;28;20021;-84
2023/04/19 12:06:21;;;;;;;4.45;1.00;;;29.10;29.50;;;;;;5057191;28;20032;-85
2023/04/19 12:08:50;;;;;;;2.13;0.80;;;29.30;29.10;;;;;;5057276;28;20032;-81
2023/04/19 12:11:17;;;;;;;3.50;0.90;;;29.40;29.00;;;;;;5055767;28;20028;-85
2023/04/19 12:13:43;;;;;;;2.25;0.80;;;29.60;28.80;;;;;;5056100;28;20032;-84
2023/04/19 12:16:11;;;;;;;2.92;0.90;;;29.70;28.60;;;;;;5054717;28;20021;-75
2023/04/19 12:18:50;;;;;;;2.65;1.05;;;29.80;28.40;;;;;;5054658;28;20488;-76
2023/04/19 12:21:30;;;;;;;2.45;1.00;;;30.00;28.10;;;;;;5053552;28;20036;-76
2023/04/19 12:23:57;;;;;;;4.65;1.10;;;30.00;27.90;;;;;;5069090;28;20017;-75
2023/04/19 12:26:23;;;;;;;3.53;0.80;;;30.10;28.10;;;;;;5061088;28;20087;-76
2023/04/19 12:28:49;;;;;;;2.72;0.82;;;30.30;28.20;;;;;;5069366;28;20020;-75
2023/04/19 12:31:15;;;;;;;2.15;1.05;;;30.50;28.20;;;;;;5074075;28;20035;-76
2023/04/19 12:33:41;;;;;;;1.70;0.80;;;30.60;28.40;;;;;;5074523;28;20016;-76
2023/04/19 12:36:07;;;;;;;2.80;0.90;;;30.90;28.30;;;;;;5071047;28;20020;-75
2023/04/19 12:38:32;;;;;;;3.13;1.25;;;31.00;28.30;;;;;;5073539;28;20286;-75
2023/04/19 12:40:58;;;;;;;3.13;0.80;;;31.10;28.30;;;;;;5073264;28;20033;-76